sensor_id;sensor_type;location;lat;lon;timestamp;P1;durP1;ratioP1;P2;durP2;ratioP2
21297;SDS011;10808;48.010;11.326;2022-12-07T00:01:22;34.33;;;17.67;;
21297;SDS011;10808;48.010;11.326;2022-12-07T00:03:51;33.22;;;18.00;;
21297;SDS011;10808;48.010;11.326;2022-12-07T00:06:18;34.25;;;18.27;;
21297;SDS011;10808;48.010;11.326;2022-12-07T00:08:45;36.47;;;18.33;;
21297;SDS011;10808;48.010;11.326;2022-12-07T00:11:18;31.23;;;17.40;;
21297;SDS011;10808;48.010;11.326;2022-12-07T00:13:46;31.38;;;16.67;;
21297;SDS011;10808;48.010;11.326;2022-12-07T00:16:14;34.20;;;17.58;;
21297;SDS011;10808;48.010;11.326;2022-12-07T00:18:42;30.95;;;17.15;;
21297;SDS011;10808;48.010;11.326;2022-12-07T00:21:28;29.60;;;16.33;;
21297;SDS011;10808;48.010;11.326;2022-12-07T00:24:04;27.75;;;16.15;;
21297;SDS011;10808;48.010;11.326;2022-12-07T00:26:32;29.40;;;15.90;;
21297;SDS011;10808;48.010;11.326;2022-12-07T00:29:01;26.58;;;15.48;;
21297;SDS011;10808;48.010;11.326;2022-12-07T00:31:30;28.17;;;15.00;;
21297;SDS011;10808;48.010;11.326;2022-12-07T00:33:59;26.25;;;15.13;;
21297;SDS011;10808;48.010;11.326;2022-12-07T00:36:25;26.40;;;15.18;;
21297;SDS011;10808;48.010;11.326;2022-12-07T00:38:51;24.70;;;14.77;;
21297;SDS011;10808;48.010;11.326;2022-12-07T00:41:20;26.75;;;15.15;;
21297;SDS011;10808;48.010;11.326;2022-12-07T00:43:47;26.77;;;15.43;;
21297;SDS011;10808;48.010;11.326;2022-12-07T00:46:14;26.35;;;15.30;;
21297;SDS011;10808;48.010;11.326;2022-12-07T00:48:41;25.23;;;15.20;;
21297;SDS011;10808;48.010;11.326;2022-12-07T00:51:07;26.42;;;14.75;;
21297;SDS011;10808;48.010;11.326;2022-12-07T00:53:36;27.33;;;15.18;;
21297;SDS011;10808;48.010;11.326;2022-12-07T00:56:06;25.60;;;14.75;;
21297;SDS011;10808;48.010;11.326;2022-12-07T00:58:43;27.38;;;15.38;;
21297;SDS011;10808;48.010;11.326;2022-12-07T01:01:10;24.07;;;13.77;;
21297;SDS011;10808;48.010;11.326;2022-12-07T01:03:36;24.17;;;14.90;;
21297;SDS011;10808;48.010;11.326;2022-12-07T01:06:03;26.57;;;15.13;;
21297;SDS011;10808;48.010;11.326;2022-12-07T01:08:29;27.83;;;15.43;;
21297;SDS011;10808;48.010;11.326;2022-12-07T01:13:26;26.10;;;14.35;;
21297;SDS011;10808;48.010;11.326;2022-12-07T01:15:56;23.83;;;14.77;;
21297;SDS011;10808;48.010;11.326;2022-12-07T01:18:26;24.13;;;14.05;;
21297;SDS011;10808;48.010;11.326;2022-12-07T01:23:28;23.77;;;14.40;;
21297;SDS011;10808;48.010;11.326;2022-12-07T01:25:55;21.87;;;13.60;;
21297;SDS011;10808;48.010;11.326;2022-12-07T01:28:22;23.30;;;14.23;;
21297;SDS011;10808;48.010;11.326;2022-12-07T01:30:58;24.95;;;14.70;;
21297;SDS011;10808;48.010;11.326;2022-12-07T01:33:29;23.48;;;14.32;;
21297;SDS011;10808;48.010;11.326;2022-12-07T01:36:00;22.23;;;14.18;;
21297;SDS011;10808;48.010;11.326;2022-12-07T01:38:28;21.90;;;14.02;;
21297;SDS011;10808;48.010;11.326;2022-12-07T01:40:55;24.77;;;14.63;;
21297;SDS011;10808;48.010;11.326;2022-12-07T01:43:22;21.58;;;13.82;;
21297;SDS011;10808;48.010;11.326;2022-12-07T01:45:51;22.38;;;13.95;;
21297;SDS011;10808;48.010;11.326;2022-12-07T01:48:17;21.33;;;13.73;;
21297;SDS011;10808;48.010;11.326;2022-12-07T01:50:51;22.45;;;13.73;;
21297;SDS011;10808;48.010;11.326;2022-12-07T01:53:20;19.80;;;13.23;;
21297;SDS011;10808;48.010;11.326;2022-12-07T01:55:49;22.55;;;13.30;;
21297;SDS011;10808;48.010;11.326;2022-12-07T01:58:18;21.85;;;13.93;;
21297;SDS011;10808;48.010;11.326;2022-12-07T02:00:46;21.98;;;13.73;;
21297;SDS011;10808;48.010;11.326;2022-12-07T02:03:22;22.48;;;13.85;;
21297;SDS011;10808;48.010;11.326;2022-12-07T02:05:53;19.65;;;13.50;;
21297;SDS011;10808;48.010;11.326;2022-12-07T02:08:20;21.63;;;13.45;;
21297;SDS011;10808;48.010;11.326;2022-12-07T02:10:46;19.30;;;13.15;;
21297;SDS011;10808;48.010;11.326;2022-12-07T02:13:13;20.45;;;13.05;;
21297;SDS011;10808;48.010;11.326;2022-12-07T02:15:45;18.75;;;13.13;;
21297;SDS011;10808;48.010;11.326;2022-12-07T02:20:56;20.45;;;13.50;;
21297;SDS011;10808;48.010;11.326;2022-12-07T02:29:57;21.10;;;13.43;;
21297;SDS011;10808;48.010;11.326;2022-12-07T02:32:18;20.80;;;13.83;;
21297;SDS011;10808;48.010;11.326;2022-12-07T02:35:12;19.47;;;12.77;;
21297;SDS011;10808;48.010;11.326;2022-12-07T02:37:51;20.60;;;13.65;;
21297;SDS011;10808;48.010;11.326;2022-12-07T02:40:24;20.80;;;13.80;;
21297;SDS011;10808;48.010;11.326;2022-12-07T02:42:54;20.40;;;13.20;;
21297;SDS011;10808;48.010;11.326;2022-12-07T02:45:25;19.50;;;13.15;;
21297;SDS011;10808;48.010;11.326;2022-12-07T02:47:55;19.92;;;13.65;;
21297;SDS011;10808;48.010;11.326;2022-12-07T02:50:24;18.15;;;12.95;;
21297;SDS011;10808;48.010;11.326;2022-12-07T02:52:51;20.20;;;12.95;;
21297;SDS011;10808;48.010;11.326;2022-12-07T02:55:17;18.48;;;12.68;;
21297;SDS011;10808;48.010;11.326;2022-12-07T03:00:34;18.43;;;12.20;;
21297;SDS011;10808;48.010;11.326;2022-12-07T03:03:12;18.85;;;12.55;;
21297;SDS011;10808;48.010;11.326;2022-12-07T03:08:10;19.58;;;13.07;;
21297;SDS011;10808;48.010;11.326;2022-12-07T03:10:54;18.80;;;12.88;;
21297;SDS011;10808;48.010;11.326;2022-12-07T03:13:23;19.63;;;12.55;;
21297;SDS011;10808;48.010;11.326;2022-12-07T03:16:27;19.55;;;12.63;;
21297;SDS011;10808;48.010;11.326;2022-12-07T03:19:09;21.02;;;13.38;;
21297;SDS011;10808;48.010;11.326;2022-12-07T03:21:40;19.98;;;13.23;;
21297;SDS011;10808;48.010;11.326;2022-12-07T03:24:19;25.60;;;15.57;;
21297;SDS011;10808;48.010;11.326;2022-12-07T03:26:53;23.05;;;14.52;;
21297;SDS011;10808;48.010;11.326;2022-12-07T03:29:27;24.15;;;15.90;;
21297;SDS011;10808;48.010;11.326;2022-12-07T03:32:05;20.60;;;14.00;;
21297;SDS011;10808;48.010;11.326;2022-12-07T03:34:45;18.70;;;12.40;;
21297;SDS011;10808;48.010;11.326;2022-12-07T03:37:18;19.33;;;13.38;;
21297;SDS011;10808;48.010;11.326;2022-12-07T03:39:57;20.65;;;13.50;;
21297;SDS011;10808;48.010;11.326;2022-12-07T03:42:27;20.45;;;13.80;;
21297;SDS011;10808;48.010;11.326;2022-12-07T03:44:55;21.05;;;13.05;;
21297;SDS011;10808;48.010;11.326;2022-12-07T03:47:26;20.48;;;13.40;;
21297;SDS011;10808;48.010;11.326;2022-12-07T03:49:59;19.85;;;13.10;;
21297;SDS011;10808;48.010;11.326;2022-12-07T03:55:08;20.30;;;13.40;;
21297;SDS011;10808;48.010;11.326;2022-12-07T03:58:00;23.58;;;14.82;;
21297;SDS011;10808;48.010;11.326;2022-12-07T04:00:29;22.88;;;14.00;;
21297;SDS011;10808;48.010;11.326;2022-12-07T04:02:56;19.65;;;13.52;;
21297;SDS011;10808;48.010;11.326;2022-12-07T04:05:22;20.55;;;12.75;;
21297;SDS011;10808;48.010;11.326;2022-12-07T04:07:49;22.17;;;14.20;;
21297;SDS011;10808;48.010;11.326;2022-12-07T04:10:15;20.60;;;13.95;;
21297;SDS011;10808;48.010;11.326;2022-12-07T04:12:41;20.67;;;13.93;;
21297;SDS011;10808;48.010;11.326;2022-12-07T04:15:07;20.23;;;13.20;;
21297;SDS011;10808;48.010;11.326;2022-12-07T04:17:33;21.35;;;13.98;;
21297;SDS011;10808;48.010;11.326;2022-12-07T04:20:00;19.63;;;13.63;;
21297;SDS011;10808;48.010;11.326;2022-12-07T04:22:26;20.77;;;13.23;;
21297;SDS011;10808;48.010;11.326;2022-12-07T04:24:52;20.30;;;12.97;;
21297;SDS011;10808;48.010;11.326;2022-12-07T04:27:18;19.00;;;12.95;;
21297;SDS011;10808;48.010;11.326;2022-12-07T04:29:44;19.23;;;12.82;;
21297;SDS011;10808;48.010;11.326;2022-12-07T04:32:10;21.03;;;13.77;;
21297;SDS011;10808;48.010;11.326;2022-12-07T04:34:36;18.55;;;12.57;;
21297;SDS011;10808;48.010;11.326;2022-12-07T04:37:02;18.55;;;12.80;;
21297;SDS011;10808;48.010;11.326;2022-12-07T04:39:29;20.00;;;13.15;;
21297;SDS011;10808;48.010;11.326;2022-12-07T04:41:58;19.52;;;13.05;;
21297;SDS011;10808;48.010;11.326;2022-12-07T04:44:25;17.50;;;12.38;;
21297;SDS011;10808;48.010;11.326;2022-12-07T04:46:53;18.73;;;12.63;;
21297;SDS011;10808;48.010;11.326;2022-12-07T04:49:20;18.95;;;13.45;;
21297;SDS011;10808;48.010;11.326;2022-12-07T04:51:46;18.52;;;12.55;;
21297;SDS011;10808;48.010;11.326;2022-12-07T04:54:13;18.97;;;12.40;;
21297;SDS011;10808;48.010;11.326;2022-12-07T04:56:40;17.73;;;11.82;;
21297;SDS011;10808;48.010;11.326;2022-12-07T04:59:06;18.83;;;12.70;;
21297;SDS011;10808;48.010;11.326;2022-12-07T05:01:33;19.05;;;12.70;;
21297;SDS011;10808;48.010;11.326;2022-12-07T05:03:59;19.23;;;12.77;;
21297;SDS011;10808;48.010;11.326;2022-12-07T05:06:26;18.08;;;12.55;;
21297;SDS011;10808;48.010;11.326;2022-12-07T05:08:52;19.23;;;12.93;;
21297;SDS011;10808;48.010;11.326;2022-12-07T05:11:18;19.15;;;13.05;;
21297;SDS011;10808;48.010;11.326;2022-12-07T05:14:04;18.42;;;12.13;;
21297;SDS011;10808;48.010;11.326;2022-12-07T05:16:40;17.27;;;12.05;;
21297;SDS011;10808;48.010;11.326;2022-12-07T05:19:09;17.73;;;12.00;;
21297;SDS011;10808;48.010;11.326;2022-12-07T05:21:35;18.30;;;11.80;;
21297;SDS011;10808;48.010;11.326;2022-12-07T05:24:02;17.65;;;10.95;;
21297;SDS011;10808;48.010;11.326;2022-12-07T05:26:29;16.10;;;11.23;;
21297;SDS011;10808;48.010;11.326;2022-12-07T05:28:56;16.50;;;11.13;;
21297;SDS011;10808;48.010;11.326;2022-12-07T05:31:23;15.85;;;11.40;;
21297;SDS011;10808;48.010;11.326;2022-12-07T05:33:50;16.45;;;11.48;;
21297;SDS011;10808;48.010;11.326;2022-12-07T05:36:16;15.43;;;10.75;;
21297;SDS011;10808;48.010;11.326;2022-12-07T05:38:42;16.30;;;11.10;;
21297;SDS011;10808;48.010;11.326;2022-12-07T05:41:09;16.40;;;11.32;;
21297;SDS011;10808;48.010;11.326;2022-12-07T05:43:59;15.13;;;10.43;;
21297;SDS011;10808;48.010;11.326;2022-12-07T05:46:26;16.05;;;10.93;;
21297;SDS011;10808;48.010;11.326;2022-12-07T05:48:52;17.15;;;11.60;;
21297;SDS011;10808;48.010;11.326;2022-12-07T05:51:18;15.15;;;10.95;;
21297;SDS011;10808;48.010;11.326;2022-12-07T05:53:44;16.08;;;11.10;;
21297;SDS011;10808;48.010;11.326;2022-12-07T05:56:11;17.45;;;11.85;;
21297;SDS011;10808;48.010;11.326;2022-12-07T05:58:37;17.33;;;12.13;;
21297;SDS011;10808;48.010;11.326;2022-12-07T06:01:22;19.92;;;12.68;;
21297;SDS011;10808;48.010;11.326;2022-12-07T06:03:48;19.70;;;12.80;;
21297;SDS011;10808;48.010;11.326;2022-12-07T06:06:14;19.65;;;13.15;;
21297;SDS011;10808;48.010;11.326;2022-12-07T06:08:40;19.15;;;12.68;;
21297;SDS011;10808;48.010;11.326;2022-12-07T06:11:06;20.15;;;13.13;;
21297;SDS011;10808;48.010;11.326;2022-12-07T06:13:51;19.92;;;13.07;;
21297;SDS011;10808;48.010;11.326;2022-12-07T06:16:17;19.45;;;12.98;;
21297;SDS011;10808;48.010;11.326;2022-12-07T06:18:43;20.35;;;12.93;;
21297;SDS011;10808;48.010;11.326;2022-12-07T06:21:09;19.95;;;13.60;;
21297;SDS011;10808;48.010;11.326;2022-12-07T06:23:35;19.42;;;12.88;;
21297;SDS011;10808;48.010;11.326;2022-12-07T06:26:01;22.85;;;14.20;;
21297;SDS011;10808;48.010;11.326;2022-12-07T06:28:27;21.20;;;13.37;;
21297;SDS011;10808;48.010;11.326;2022-12-07T06:31:00;22.02;;;14.15;;
21297;SDS011;10808;48.010;11.326;2022-12-07T06:33:27;21.60;;;14.18;;
21297;SDS011;10808;48.010;11.326;2022-12-07T06:35:54;21.70;;;13.98;;
21297;SDS011;10808;48.010;11.326;2022-12-07T06:38:21;21.87;;;14.17;;
21297;SDS011;10808;48.010;11.326;2022-12-07T06:40:47;21.60;;;13.95;;
21297;SDS011;10808;48.010;11.326;2022-12-07T06:43:13;21.65;;;14.15;;
21297;SDS011;10808;48.010;11.326;2022-12-07T06:45:40;22.08;;;14.60;;
21297;SDS011;10808;48.010;11.326;2022-12-07T06:48:06;20.83;;;13.82;;
21297;SDS011;10808;48.010;11.326;2022-12-07T06:50:33;21.95;;;14.30;;
21297;SDS011;10808;48.010;11.326;2022-12-07T06:52:59;18.97;;;12.63;;
21297;SDS011;10808;48.010;11.326;2022-12-07T06:55:25;20.38;;;13.43;;
21297;SDS011;10808;48.010;11.326;2022-12-07T06:57:51;21.35;;;13.85;;
21297;SDS011;10808;48.010;11.326;2022-12-07T07:00:17;18.67;;;13.07;;
21297;SDS011;10808;48.010;11.326;2022-12-07T07:02:43;20.42;;;13.35;;
21297;SDS011;10808;48.010;11.326;2022-12-07T07:05:09;20.80;;;13.75;;
21297;SDS011;10808;48.010;11.326;2022-12-07T07:07:35;21.77;;;14.15;;
21297;SDS011;10808;48.010;11.326;2022-12-07T07:10:02;20.60;;;13.77;;
21297;SDS011;10808;48.010;11.326;2022-12-07T07:12:29;22.05;;;14.23;;
21297;SDS011;10808;48.010;11.326;2022-12-07T07:14:55;26.03;;;16.03;;
21297;SDS011;10808;48.010;11.326;2022-12-07T07:17:21;20.83;;;13.80;;
21297;SDS011;10808;48.010;11.326;2022-12-07T07:19:48;20.08;;;13.93;;
21297;SDS011;10808;48.010;11.326;2022-12-07T07:22:14;18.48;;;12.95;;
21297;SDS011;10808;48.010;11.326;2022-12-07T07:24:40;19.75;;;13.55;;
21297;SDS011;10808;48.010;11.326;2022-12-07T07:27:06;21.38;;;14.27;;
21297;SDS011;10808;48.010;11.326;2022-12-07T07:29:32;21.67;;;14.70;;
21297;SDS011;10808;48.010;11.326;2022-12-07T07:31:59;21.00;;;14.10;;
21297;SDS011;10808;48.010;11.326;2022-12-07T07:34:25;20.10;;;13.57;;
21297;SDS011;10808;48.010;11.326;2022-12-07T07:36:51;19.00;;;13.38;;
21297;SDS011;10808;48.010;11.326;2022-12-07T07:39:17;19.30;;;13.88;;
21297;SDS011;10808;48.010;11.326;2022-12-07T07:41:43;30.37;;;18.87;;
21297;SDS011;10808;48.010;11.326;2022-12-07T07:44:09;31.15;;;19.42;;
21297;SDS011;10808;48.010;11.326;2022-12-07T07:46:35;31.02;;;19.15;;
21297;SDS011;10808;48.010;11.326;2022-12-07T07:49:01;26.85;;;16.77;;
21297;SDS011;10808;48.010;11.326;2022-12-07T07:51:27;26.85;;;18.05;;
21297;SDS011;10808;48.010;11.326;2022-12-07T07:53:53;33.13;;;17.15;;
21297;SDS011;10808;48.010;11.326;2022-12-07T07:56:19;25.67;;;16.60;;
21297;SDS011;10808;48.010;11.326;2022-12-07T07:58:45;25.10;;;16.20;;
21297;SDS011;10808;48.010;11.326;2022-12-07T08:01:11;21.88;;;15.30;;
21297;SDS011;10808;48.010;11.326;2022-12-07T08:03:38;25.27;;;16.52;;
21297;SDS011;10808;48.010;11.326;2022-12-07T08:06:05;23.20;;;15.40;;
21297;SDS011;10808;48.010;11.326;2022-12-07T08:08:31;25.15;;;16.25;;
21297;SDS011;10808;48.010;11.326;2022-12-07T08:10:57;29.35;;;17.55;;
21297;SDS011;10808;48.010;11.326;2022-12-07T08:13:26;25.38;;;16.88;;
21297;SDS011;10808;48.010;11.326;2022-12-07T08:15:53;27.60;;;17.70;;
21297;SDS011;10808;48.010;11.326;2022-12-07T08:18:19;24.50;;;16.65;;
21297;SDS011;10808;48.010;11.326;2022-12-07T08:20:45;25.73;;;15.90;;
21297;SDS011;10808;48.010;11.326;2022-12-07T08:23:11;24.17;;;16.50;;
21297;SDS011;10808;48.010;11.326;2022-12-07T08:25:37;22.42;;;15.20;;
21297;SDS011;10808;48.010;11.326;2022-12-07T08:28:04;23.38;;;14.95;;
21297;SDS011;10808;48.010;11.326;2022-12-07T08:30:30;26.35;;;15.93;;
21297;SDS011;10808;48.010;11.326;2022-12-07T08:32:56;26.13;;;16.42;;
21297;SDS011;10808;48.010;11.326;2022-12-07T08:35:23;24.03;;;16.33;;
21297;SDS011;10808;48.010;11.326;2022-12-07T08:37:49;26.50;;;17.98;;
21297;SDS011;10808;48.010;11.326;2022-12-07T08:40:15;29.20;;;18.23;;
21297;SDS011;10808;48.010;11.326;2022-12-07T08:42:47;27.27;;;18.57;;
21297;SDS011;10808;48.010;11.326;2022-12-07T08:45:15;28.83;;;19.25;;
21297;SDS011;10808;48.010;11.326;2022-12-07T08:47:50;28.92;;;18.65;;
21297;SDS011;10808;48.010;11.326;2022-12-07T08:50:27;24.98;;;17.25;;
21297;SDS011;10808;48.010;11.326;2022-12-07T08:52:54;24.77;;;16.50;;
21297;SDS011;10808;48.010;11.326;2022-12-07T08:55:22;25.75;;;17.00;;
21297;SDS011;10808;48.010;11.326;2022-12-07T08:57:49;25.38;;;17.35;;
21297;SDS011;10808;48.010;11.326;2022-12-07T09:00:16;25.87;;;17.33;;
21297;SDS011;10808;48.010;11.326;2022-12-07T09:02:43;26.20;;;17.73;;
21297;SDS011;10808;48.010;11.326;2022-12-07T09:05:10;28.90;;;18.85;;
21297;SDS011;10808;48.010;11.326;2022-12-07T09:07:36;27.77;;;18.30;;
21297;SDS011;10808;48.010;11.326;2022-12-07T09:10:03;28.30;;;18.70;;
21297;SDS011;10808;48.010;11.326;2022-12-07T09:12:31;31.98;;;18.42;;
21297;SDS011;10808;48.010;11.326;2022-12-07T09:14:57;26.67;;;17.67;;
21297;SDS011;10808;48.010;11.326;2022-12-07T09:17:23;28.52;;;17.95;;
21297;SDS011;10808;48.010;11.326;2022-12-07T09:19:49;28.08;;;17.92;;
21297;SDS011;10808;48.010;11.326;2022-12-07T09:22:15;27.45;;;17.83;;
21297;SDS011;10808;48.010;11.326;2022-12-07T09:24:42;27.92;;;17.75;;
21297;SDS011;10808;48.010;11.326;2022-12-07T09:27:08;28.08;;;18.25;;
21297;SDS011;10808;48.010;11.326;2022-12-07T09:29:34;25.17;;;17.05;;
21297;SDS011;10808;48.010;11.326;2022-12-07T09:32:00;26.25;;;17.13;;
21297;SDS011;10808;48.010;11.326;2022-12-07T09:34:26;27.60;;;17.67;;
21297;SDS011;10808;48.010;11.326;2022-12-07T09:36:55;26.70;;;17.45;;
21297;SDS011;10808;48.010;11.326;2022-12-07T09:39:21;27.83;;;18.27;;
21297;SDS011;10808;48.010;11.326;2022-12-07T09:41:48;26.95;;;17.70;;
21297;SDS011;10808;48.010;11.326;2022-12-07T09:44:15;24.58;;;16.42;;
21297;SDS011;10808;48.010;11.326;2022-12-07T09:46:47;23.35;;;15.80;;
21297;SDS011;10808;48.010;11.326;2022-12-07T09:49:14;24.35;;;15.82;;
21297;SDS011;10808;48.010;11.326;2022-12-07T09:51:44;22.97;;;15.47;;
21297;SDS011;10808;48.010;11.326;2022-12-07T09:54:14;23.47;;;15.27;;
21297;SDS011;10808;48.010;11.326;2022-12-07T09:56:42;24.92;;;16.83;;
21297;SDS011;10808;48.010;11.326;2022-12-07T09:59:12;22.88;;;15.32;;
21297;SDS011;10808;48.010;11.326;2022-12-07T10:01:43;23.95;;;16.00;;
21297;SDS011;10808;48.010;11.326;2022-12-07T10:04:13;23.67;;;16.25;;
21297;SDS011;10808;48.010;11.326;2022-12-07T10:06:43;25.40;;;16.33;;
21297;SDS011;10808;48.010;11.326;2022-12-07T10:09:11;23.02;;;16.05;;
21297;SDS011;10808;48.010;11.326;2022-12-07T10:14:38;23.80;;;16.00;;
21297;SDS011;10808;48.010;11.326;2022-12-07T10:17:25;25.60;;;16.75;;
21297;SDS011;10808;48.010;11.326;2022-12-07T10:23:03;22.63;;;15.73;;
21297;SDS011;10808;48.010;11.326;2022-12-07T10:25:32;22.45;;;15.90;;
21297;SDS011;10808;48.010;11.326;2022-12-07T10:30:53;21.23;;;14.82;;
21297;SDS011;10808;48.010;11.326;2022-12-07T10:33:37;21.40;;;15.03;;
21297;SDS011;10808;48.010;11.326;2022-12-07T10:36:18;20.40;;;14.68;;
21297;SDS011;10808;48.010;11.326;2022-12-07T10:38:51;19.42;;;13.85;;
21297;SDS011;10808;48.010;11.326;2022-12-07T10:41:26;21.23;;;14.18;;
21297;SDS011;10808;48.010;11.326;2022-12-07T10:43:54;20.17;;;14.02;;
21297;SDS011;10808;48.010;11.326;2022-12-07T10:49:42;17.17;;;12.97;;
21297;SDS011;10808;48.010;11.326;2022-12-07T10:52:44;17.90;;;12.95;;
21297;SDS011;10808;48.010;11.326;2022-12-07T10:55:24;19.40;;;13.80;;
21297;SDS011;10808;48.010;11.326;2022-12-07T11:01:24;17.38;;;12.88;;
21297;SDS011;10808;48.010;11.326;2022-12-07T11:06:57;18.63;;;13.60;;
21297;SDS011;10808;48.010;11.326;2022-12-07T11:10:00;19.13;;;13.80;;
21297;SDS011;10808;48.010;11.326;2022-12-07T11:12:54;18.88;;;13.73;;
21297;SDS011;10808;48.010;11.326;2022-12-07T11:21:26;18.25;;;13.25;;
21297;SDS011;10808;48.010;11.326;2022-12-07T11:29:19;16.85;;;12.45;;
21297;SDS011;10808;48.010;11.326;2022-12-07T11:37:23;14.52;;;10.52;;
21297;SDS011;10808;48.010;11.326;2022-12-07T11:39:56;14.77;;;10.75;;
21297;SDS011;10808;48.010;11.326;2022-12-07T11:42:29;14.53;;;10.80;;
21297;SDS011;10808;48.010;11.326;2022-12-07T11:48:12;16.23;;;12.13;;
21297;SDS011;10808;48.010;11.326;2022-12-07T11:51:07;15.90;;;12.20;;
21297;SDS011;10808;48.010;11.326;2022-12-07T11:53:38;17.65;;;11.95;;
21297;SDS011;10808;48.010;11.326;2022-12-07T11:56:12;18.08;;;13.00;;
21297;SDS011;10808;48.010;11.326;2022-12-07T12:09:10;15.05;;;11.68;;
21297;SDS011;10808;48.010;11.326;2022-12-07T12:19:46;14.80;;;11.23;;
21297;SDS011;10808;48.010;11.326;2022-12-07T12:25:29;15.90;;;12.23;;
21297;SDS011;10808;48.010;11.326;2022-12-07T12:28:01;15.60;;;12.10;;
21297;SDS011;10808;48.010;11.326;2022-12-07T12:30:33;15.52;;;11.55;;
21297;SDS011;10808;48.010;11.326;2022-12-07T12:33:13;15.05;;;11.45;;
21297;SDS011;10808;48.010;11.326;2022-12-07T12:36:42;14.85;;;10.93;;
21297;SDS011;10808;48.010;11.326;2022-12-07T12:39:12;16.50;;;12.30;;
21297;SDS011;10808;48.010;11.326;2022-12-07T12:46:59;15.47;;;11.63;;
21297;SDS011;10808;48.010;11.326;2022-12-07T12:54:57;17.45;;;12.48;;
21297;SDS011;10808;48.010;11.326;2022-12-07T12:57:28;15.32;;;11.52;;
21297;SDS011;10808;48.010;11.326;2022-12-07T13:00:01;15.85;;;11.52;;
21297;SDS011;10808;48.010;11.326;2022-12-07T13:03:02;16.20;;;11.48;;
21297;SDS011;10808;48.010;11.326;2022-12-07T13:05:28;15.90;;;11.68;;
21297;SDS011;10808;48.010;11.326;2022-12-07T13:08:02;15.23;;;11.20;;
21297;SDS011;10808;48.010;11.326;2022-12-07T13:10:44;14.38;;;10.95;;
21297;SDS011;10808;48.010;11.326;2022-12-07T13:26:19;13.80;;;10.57;;
21297;SDS011;10808;48.010;11.326;2022-12-07T13:28:47;14.25;;;10.95;;
21297;SDS011;10808;48.010;11.326;2022-12-07T13:33:58;16.35;;;11.35;;
21297;SDS011;10808;48.010;11.326;2022-12-07T13:36:26;15.47;;;11.03;;
21297;SDS011;10808;48.010;11.326;2022-12-07T13:38:57;15.20;;;10.37;;
21297;SDS011;10808;48.010;11.326;2022-12-07T13:41:28;12.93;;;9.77;;
21297;SDS011;10808;48.010;11.326;2022-12-07T13:49:26;13.23;;;9.82;;
21297;SDS011;10808;48.010;11.326;2022-12-07T13:52:07;14.20;;;9.90;;
21297;SDS011;10808;48.010;11.326;2022-12-07T13:54:43;14.75;;;9.55;;
21297;SDS011;10808;48.010;11.326;2022-12-07T13:57:14;13.63;;;9.10;;
21297;SDS011;10808;48.010;11.326;2022-12-07T13:59:41;12.13;;;8.65;;
21297;SDS011;10808;48.010;11.326;2022-12-07T14:02:18;11.38;;;8.48;;
21297;SDS011;10808;48.010;11.326;2022-12-07T14:04:50;12.40;;;8.80;;
21297;SDS011;10808;48.010;11.326;2022-12-07T14:07:27;12.35;;;8.68;;
21297;SDS011;10808;48.010;11.326;2022-12-07T14:09:55;13.07;;;9.15;;
21297;SDS011;10808;48.010;11.326;2022-12-07T14:12:26;13.80;;;9.88;;
21297;SDS011;10808;48.010;11.326;2022-12-07T14:14:54;12.25;;;9.40;;
21297;SDS011;10808;48.010;11.326;2022-12-07T14:17:23;15.40;;;11.00;;
21297;SDS011;10808;48.010;11.326;2022-12-07T14:19:54;19.50;;;13.23;;
21297;SDS011;10808;48.010;11.326;2022-12-07T14:30:21;15.00;;;11.32;;
21297;SDS011;10808;48.010;11.326;2022-12-07T14:32:50;14.80;;;10.40;;
21297;SDS011;10808;48.010;11.326;2022-12-07T14:35:19;15.88;;;10.85;;
21297;SDS011;10808;48.010;11.326;2022-12-07T14:37:46;15.65;;;11.13;;
21297;SDS011;10808;48.010;11.326;2022-12-07T14:40:19;14.88;;;10.75;;
21297;SDS011;10808;48.010;11.326;2022-12-07T14:42:49;14.07;;;10.53;;
21297;SDS011;10808;48.010;11.326;2022-12-07T14:45:20;17.63;;;10.70;;
21297;SDS011;10808;48.010;11.326;2022-12-07T14:47:47;15.27;;;10.70;;
21297;SDS011;10808;48.010;11.326;2022-12-07T14:50:14;18.63;;;11.88;;
21297;SDS011;10808;48.010;11.326;2022-12-07T14:52:44;16.30;;;10.98;;
21297;SDS011;10808;48.010;11.326;2022-12-07T14:55:25;15.75;;;11.10;;
21297;SDS011;10808;48.010;11.326;2022-12-07T14:57:52;17.17;;;11.60;;
21297;SDS011;10808;48.010;11.326;2022-12-07T15:00:19;17.80;;;11.93;;
21297;SDS011;10808;48.010;11.326;2022-12-07T15:02:47;15.10;;;10.63;;
21297;SDS011;10808;48.010;11.326;2022-12-07T15:05:14;16.83;;;11.57;;
21297;SDS011;10808;48.010;11.326;2022-12-07T15:07:40;15.95;;;11.15;;
21297;SDS011;10808;48.010;11.326;2022-12-07T15:10:13;17.55;;;11.70;;
21297;SDS011;10808;48.010;11.326;2022-12-07T15:12:45;20.10;;;13.98;;
21297;SDS011;10808;48.010;11.326;2022-12-07T15:15:11;16.25;;;11.60;;
21297;SDS011;10808;48.010;11.326;2022-12-07T15:17:38;21.27;;;14.38;;
21297;SDS011;10808;48.010;11.326;2022-12-07T15:20:05;24.95;;;17.67;;
21297;SDS011;10808;48.010;11.326;2022-12-07T15:22:36;22.13;;;15.77;;
21297;SDS011;10808;48.010;11.326;2022-12-07T15:25:02;37.85;;;22.65;;
21297;SDS011;10808;48.010;11.326;2022-12-07T15:27:30;53.55;;;31.75;;
21297;SDS011;10808;48.010;11.326;2022-12-07T15:29:56;35.75;;;21.55;;
21297;SDS011;10808;48.010;11.326;2022-12-07T15:32:22;29.47;;;19.47;;
21297;SDS011;10808;48.010;11.326;2022-12-07T15:34:48;25.15;;;16.33;;
21297;SDS011;10808;48.010;11.326;2022-12-07T15:37:15;20.45;;;14.90;;
21297;SDS011;10808;48.010;11.326;2022-12-07T15:39:41;19.05;;;13.32;;
21297;SDS011;10808;48.010;11.326;2022-12-07T15:42:07;18.77;;;13.30;;
21297;SDS011;10808;48.010;11.326;2022-12-07T15:44:34;18.60;;;12.73;;
21297;SDS011;10808;48.010;11.326;2022-12-07T15:47:18;18.63;;;12.30;;
21297;SDS011;10808;48.010;11.326;2022-12-07T15:49:44;17.20;;;12.00;;
21297;SDS011;10808;48.010;11.326;2022-12-07T15:52:10;16.15;;;11.52;;
21297;SDS011;10808;48.010;11.326;2022-12-07T15:54:36;16.40;;;11.17;;
21297;SDS011;10808;48.010;11.326;2022-12-07T15:57:03;17.00;;;11.48;;
21297;SDS011;10808;48.010;11.326;2022-12-07T15:59:29;15.82;;;10.57;;
21297;SDS011;10808;48.010;11.326;2022-12-07T16:01:55;14.80;;;10.80;;
21297;SDS011;10808;48.010;11.326;2022-12-07T16:04:22;15.20;;;10.90;;
21297;SDS011;10808;48.010;11.326;2022-12-07T16:06:48;17.27;;;11.87;;
21297;SDS011;10808;48.010;11.326;2022-12-07T16:09:16;15.82;;;11.27;;
21297;SDS011;10808;48.010;11.326;2022-12-07T16:11:42;16.50;;;10.85;;
21297;SDS011;10808;48.010;11.326;2022-12-07T16:14:08;17.08;;;11.68;;
21297;SDS011;10808;48.010;11.326;2022-12-07T16:16:34;20.25;;;13.07;;
21297;SDS011;10808;48.010;11.326;2022-12-07T16:19:00;25.85;;;15.32;;
21297;SDS011;10808;48.010;11.326;2022-12-07T16:21:28;24.60;;;15.40;;
21297;SDS011;10808;48.010;11.326;2022-12-07T16:23:56;25.52;;;15.10;;
21297;SDS011;10808;48.010;11.326;2022-12-07T16:26:24;20.50;;;13.83;;